createdAt,value
2019-01-03T09:08:34.758Z,43.12
2019-01-03T09:10:35.033Z,43.72
2019-01-03T09:12:34.792Z,43.36
2019-01-03T09:14:34.817Z,43.31
2019-01-03T09:16:34.918Z,43.43
2019-01-03T09:18:34.841Z,43.30
2019-01-03T09:20:34.901Z,43.39
2019-01-03T09:22:34.943Z,43.64
2019-01-03T09:24:34.925Z,43.63
2019-01-03T09:26:34.877Z,45.72
2019-01-03T09:28:34.961Z,44.29
2019-01-03T09:30:39.903Z,44.42
2019-01-03T09:32:34.850Z,44.46
2019-01-03T09:34:34.844Z,44.85
2019-01-03T09:36:34.725Z,44.74
2019-01-03T09:38:35.075Z,44.36
2019-01-03T09:40:34.886Z,44.39
2019-01-03T09:42:36.013Z,44.19
2019-01-03T09:48:34.817Z,45.05
2019-01-03T09:50:39.778Z,45.02
2019-01-03T09:54:34.854Z,45.32
2019-01-03T09:56:34.935Z,45.26
2019-01-03T10:00:34.786Z,45.29
2019-01-03T10:02:34.974Z,44.54
2019-01-03T10:06:34.871Z,41.33
2019-01-03T10:08:35.013Z,42.03
2019-01-03T10:12:34.900Z,40.70
2019-01-03T10:14:37.670Z,40.39
2019-01-03T10:18:34.931Z,39.84
2019-01-03T10:20:34.950Z,39.30
2019-01-03T10:24:34.787Z,39.66
2019-01-03T10:26:34.990Z,39.39
2019-01-03T10:30:34.956Z,39.38
2019-01-03T10:32:34.876Z,39.43
2019-01-03T10:36:34.754Z,40.20
2019-01-03T10:38:34.761Z,40.50
2019-01-03T10:42:39.905Z,40.71
2019-01-03T10:44:34.805Z,41.08
2019-01-03T10:48:37.750Z,40.73
2019-01-03T10:50:37.464Z,40.15
2019-01-03T10:54:34.821Z,39.97
2019-01-03T10:56:34.782Z,39.85
2019-01-03T11:00:34.806Z,39.67
2019-01-03T11:02:34.782Z,40.02
2019-01-03T11:06:34.762Z,40.17
2019-01-03T11:08:39.835Z,40.49
2019-01-03T11:12:39.143Z,40.61
2019-01-03T11:14:40.022Z,40.65
2019-01-03T11:18:34.821Z,41.01
2019-01-03T11:20:34.810Z,41.08
2019-01-03T11:24:34.855Z,41.59
2019-01-03T11:26:34.791Z,41.35
2019-01-03T11:30:40.006Z,41.76
2019-01-03T11:32:35.775Z,42.03
2019-01-03T11:36:34.780Z,42.29
2019-01-03T11:38:34.804Z,41.72
2019-01-03T11:42:34.804Z,42.04
2019-01-03T11:44:35.003Z,42.32
2019-01-03T11:48:39.998Z,42.47
2019-01-03T11:50:34.839Z,42.34
2019-01-03T11:54:34.784Z,42.81
2019-01-03T11:56:34.846Z,42.78
2019-01-03T12:00:34.799Z,42.68
2019-01-03T12:02:34.822Z,43.03
2019-01-03T12:06:35.756Z,43.19
2019-01-03T12:08:34.817Z,43.25
2019-01-03T12:12:34.838Z,43.06
2019-01-03T12:14:34.878Z,43.10
2019-01-03T12:18:34.824Z,43.66
2019-01-03T12:20:34.814Z,43.57
2019-01-03T12:23:48.101Z,44.15
2019-01-03T12:25:49.120Z,43.56
2019-01-03T12:27:48.093Z,43.86
2019-01-03T12:29:48.104Z,43.97
2019-01-03T12:31:48.075Z,43.83
2019-01-03T12:33:48.096Z,43.91
2019-01-03T12:35:48.189Z,44.19
2019-01-03T12:37:48.110Z,43.59
2019-01-03T12:39:48.126Z,44.18
2019-01-03T12:41:48.207Z,43.63
2019-01-03T12:43:48.135Z,44.32
2019-01-03T12:45:53.342Z,43.83
2019-01-03T12:47:48.170Z,43.93
2019-01-03T12:49:48.152Z,44.18
2019-01-03T12:51:48.185Z,44.21
2019-01-03T12:53:48.215Z,44.07
2019-01-03T12:55:48.158Z,44.07
2019-01-03T12:57:48.126Z,44.23
2019-01-03T12:59:48.188Z,44.18
2019-01-03T13:01:48.123Z,44.05
2019-01-03T13:03:49.887Z,44.57
2019-01-03T13:05:48.282Z,44.71
2019-01-03T13:07:48.120Z,44.40
2019-01-03T13:09:48.143Z,44.53
2019-01-03T13:11:48.242Z,45.08
2019-01-03T13:13:48.129Z,45.15
2019-01-03T13:15:48.160Z,44.78
2019-01-03T13:17:48.170Z,45.17
2019-01-03T13:19:48.131Z,44.68
2019-01-03T13:21:48.145Z,44.65
2019-01-03T13:23:48.190Z,44.69
2019-01-03T13:25:48.142Z,44.80
2019-01-03T13:27:48.362Z,44.93
2019-01-03T13:29:48.199Z,44.82
2019-01-03T13:31:48.165Z,44.44
2019-01-03T13:33:48.187Z,43.77
2019-01-03T13:35:48.164Z,43.76
2019-01-03T13:37:52.594Z,44.26
2019-01-03T13:40:05.243Z,43.87
2019-01-03T13:41:48.226Z,44.25
2019-01-03T13:43:48.169Z,44.43
2019-01-03T13:45:48.165Z,44.49
2019-01-03T13:47:48.220Z,44.42
2019-01-03T13:49:48.183Z,44.41
2019-01-03T13:51:48.145Z,44.54
2019-01-03T13:53:48.210Z,44.35
2019-01-03T13:55:48.168Z,44.43
2019-01-03T13:57:48.151Z,44.78
2019-01-03T13:59:48.187Z,44.84
2019-01-03T14:01:48.150Z,44.23
2019-01-03T14:03:48.144Z,44.44
2019-01-03T14:05:48.187Z,44.71
2019-01-03T14:07:48.151Z,44.59
2019-01-03T14:09:48.163Z,44.38
2019-01-03T14:11:48.196Z,44.29
2019-01-03T14:13:48.150Z,43.82
2019-01-03T14:15:48.158Z,44.14
2019-01-03T14:17:48.191Z,43.77
2019-01-03T14:19:48.151Z,44.10
2019-01-03T14:21:48.164Z,43.79
2019-01-03T14:23:48.196Z,43.62
2019-01-03T14:25:48.178Z,43.58
2019-01-03T14:27:48.143Z,43.85
2019-01-03T14:29:48.199Z,43.48
2019-01-03T14:31:48.178Z,43.81
2019-01-03T14:33:48.188Z,42.89
2019-01-03T14:35:48.193Z,43.54
2019-01-03T14:37:48.188Z,43.00
2019-01-03T14:39:48.163Z,43.06
2019-01-03T14:41:48.196Z,42.96
2019-01-03T14:43:48.154Z,42.83
2019-01-03T14:45:48.172Z,43.37
2019-01-03T14:47:48.217Z,42.93
2019-01-03T14:49:48.192Z,42.81
2019-01-03T14:51:48.178Z,42.79
2019-01-03T14:53:48.193Z,42.66
2019-01-03T14:55:48.189Z,42.78
2019-01-03T14:57:48.205Z,42.57
2019-01-03T14:59:48.220Z,42.94
2019-01-03T15:01:48.178Z,43.04
2019-01-03T15:03:48.163Z,43.19
2019-01-03T15:05:48.197Z,42.76
2019-01-03T15:07:48.168Z,42.86
2019-01-03T15:09:48.218Z,42.60
2019-01-03T15:11:48.244Z,42.45
2019-01-03T15:13:48.198Z,42.99
2019-01-03T15:15:48.187Z,42.32
2019-01-03T15:17:48.210Z,42.73
2019-01-03T15:19:48.194Z,42.71
2019-01-03T15:21:48.184Z,42.41
2019-01-03T15:23:48.225Z,42.14
2019-01-03T15:25:48.171Z,42.70
2019-01-03T15:27:48.220Z,42.25
2019-01-03T15:29:48.272Z,42.66
2019-01-03T15:31:48.184Z,42.74
2019-01-03T15:33:48.216Z,42.32
2019-01-03T15:35:48.473Z,42.73
2019-01-03T15:37:48.224Z,42.56
2019-01-03T15:39:48.194Z,42.76
2019-01-03T15:41:48.270Z,42.73
2019-01-03T15:43:49.267Z,42.18
2019-01-03T15:45:48.203Z,42.48
2019-01-03T15:47:48.264Z,42.41
2019-01-03T15:49:48.232Z,42.45
2019-01-03T15:51:48.240Z,42.18
2019-01-03T15:53:48.230Z,42.23
2019-01-03T15:55:48.229Z,42.63
2019-01-03T15:57:48.214Z,42.31
2019-01-03T15:59:48.262Z,42.65
2019-01-03T16:01:48.216Z,42.28
2019-01-03T16:03:48.202Z,42.24
2019-01-03T16:05:48.256Z,42.21
2019-01-03T16:07:48.213Z,42.39
2019-01-03T16:09:48.228Z,42.34
2019-01-03T16:11:48.268Z,42.18
2019-01-03T16:13:48.206Z,42.62
2019-01-03T16:15:48.291Z,42.13
2019-01-03T16:17:48.284Z,41.90
2019-01-03T16:19:48.237Z,42.27
2019-01-03T16:21:48.232Z,41.99
2019-01-03T16:23:48.245Z,42.25
2019-01-03T16:25:48.273Z,42.27
2019-01-03T16:27:48.230Z,42.03
2019-01-03T16:29:48.250Z,42.14
2019-01-03T16:31:48.243Z,41.85
2019-01-03T16:33:48.233Z,41.66
2019-01-03T16:35:49.620Z,41.90
2019-01-03T16:37:48.224Z,42.11
2019-01-03T16:39:48.214Z,42.27
2019-01-03T16:41:48.265Z,42.04
2019-01-03T16:43:48.244Z,42.08
2019-01-03T16:45:48.252Z,42.24
2019-01-03T16:47:48.252Z,42.42
2019-01-03T16:49:48.256Z,41.87
2019-01-03T16:51:48.269Z,42.43
2019-01-03T16:53:48.308Z,41.92
2019-01-03T16:55:48.289Z,41.34
2019-01-03T16:57:48.250Z,41.36
2019-01-03T16:59:48.246Z,41.88
2019-01-03T17:01:48.273Z,42.02
2019-01-03T17:03:48.265Z,42.19
2019-01-03T17:05:48.286Z,42.11
2019-01-03T17:07:48.267Z,41.67
2019-01-03T17:09:49.249Z,42.05
2019-01-03T17:11:48.280Z,42.22
2019-01-03T17:13:48.246Z,42.25
2019-01-03T17:15:48.304Z,42.62
2019-01-03T17:17:48.284Z,42.72
2019-01-03T17:19:48.263Z,42.86
2019-01-03T17:21:48.295Z,42.54
2019-01-03T17:23:48.328Z,43.06
2019-01-03T17:25:48.266Z,43.18
2019-01-03T17:27:48.262Z,43.45
2019-01-03T17:29:48.307Z,43.16
2019-01-03T17:31:48.317Z,43.31
2019-01-03T17:33:52.733Z,43.30
2019-01-03T17:35:48.311Z,43.76
2019-01-03T17:37:48.309Z,43.42
2019-01-03T17:39:48.279Z,43.77
2019-01-03T17:41:48.313Z,44.39
2019-01-03T17:43:48.312Z,44.36
2019-01-03T17:45:48.270Z,44.36
2019-01-03T17:47:48.320Z,44.39
2019-01-03T17:49:48.295Z,44.36
2019-01-03T17:51:48.281Z,44.36
2019-01-03T17:53:48.361Z,44.05
2019-01-03T17:55:49.088Z,44.45
2019-01-03T17:57:48.263Z,44.37
2019-01-03T17:59:48.518Z,44.43
2019-01-03T18:01:48.316Z,44.37
2019-01-03T18:03:48.303Z,44.41
2019-01-03T18:05:48.358Z,44.62
2019-01-03T18:07:48.293Z,44.47
2019-01-03T18:09:48.310Z,44.54
2019-01-03T18:11:49.059Z,44.56
2019-01-03T18:13:48.472Z,44.59
2019-01-03T18:15:48.307Z,44.65
2019-01-03T18:17:48.346Z,44.66
2019-01-03T18:19:48.313Z,44.37
2019-01-03T18:21:53.549Z,44.69
2019-01-03T18:23:48.322Z,44.43
2019-01-03T18:25:48.323Z,44.50
2019-01-03T18:27:48.343Z,44.51
2019-01-03T18:29:49.505Z,44.60
2019-01-03T18:31:48.330Z,44.45
2019-01-03T18:33:48.319Z,44.78
2019-01-03T18:35:48.339Z,44.53
2019-01-03T18:37:48.318Z,44.51
2019-01-03T18:39:48.338Z,44.47
2019-01-03T18:41:48.508Z,44.78
2019-01-03T18:43:48.287Z,44.83
2019-01-03T18:45:48.291Z,44.46
2019-01-03T18:47:48.353Z,44.50
2019-01-03T18:49:48.484Z,44.20
2019-01-03T18:51:48.336Z,43.99
2019-01-03T18:53:48.532Z,43.94
2019-01-03T18:57:48.313Z,43.39
2019-01-03T18:59:48.350Z,42.98
2019-01-03T19:01:48.334Z,42.42
2019-01-03T19:03:48.342Z,42.93
2019-01-03T19:05:48.343Z,42.91
2019-01-03T19:07:48.339Z,42.87
2019-01-03T19:09:48.315Z,42.25
2019-01-03T19:11:48.386Z,42.49
2019-01-03T19:13:48.343Z,42.23
2019-01-03T19:15:51.833Z,43.11
2019-01-03T19:17:48.356Z,43.22
2019-01-03T19:19:49.264Z,43.07
2019-01-03T19:21:48.314Z,43.01
2019-01-03T19:23:48.445Z,42.78
2019-01-03T19:25:48.331Z,43.44
2019-01-03T19:27:48.336Z,43.01
2019-01-03T19:29:48.352Z,42.94
2019-01-03T19:31:48.445Z,43.27
2019-01-03T19:33:48.363Z,43.10
2019-01-03T19:35:48.376Z,43.39
2019-01-03T19:37:48.504Z,43.86
2019-01-03T19:39:48.308Z,43.67
2019-01-03T19:41:48.359Z,43.26
2019-01-03T19:43:48.366Z,43.36
2019-01-03T19:45:50.685Z,44.00
2019-01-03T19:47:48.368Z,43.93
2019-01-03T19:49:48.338Z,43.89
2019-01-03T19:51:48.379Z,43.42
2019-01-03T19:53:48.365Z,44.21
2019-01-03T19:55:48.341Z,43.60
2019-01-03T19:57:48.370Z,44.07
2019-01-03T19:59:48.548Z,43.80
2019-01-03T20:01:48.341Z,43.90
2019-01-03T20:03:48.586Z,44.28
2019-01-03T20:05:50.294Z,44.33
2019-01-03T20:07:48.362Z,44.30
2019-01-03T20:09:48.333Z,43.94
2019-01-03T20:11:48.371Z,43.88
2019-01-03T20:13:48.366Z,43.73
2019-01-03T20:15:48.338Z,43.93
2019-01-03T20:21:48.340Z,43.96
2019-01-03T20:23:48.442Z,44.02
2019-01-03T20:27:48.382Z,43.71
2019-01-03T20:29:48.431Z,43.88
2019-01-03T20:33:50.459Z,44.38
2019-01-03T20:35:48.364Z,44.52
2019-01-03T20:39:53.845Z,44.41
2019-01-03T20:41:48.389Z,44.80
2019-01-03T20:45:48.605Z,44.68
2019-01-03T20:47:48.408Z,44.86
2019-01-03T20:51:48.377Z,45.05
2019-01-03T20:53:48.349Z,44.64
2019-01-03T20:57:48.365Z,45.03
2019-01-03T20:59:48.360Z,44.33
2019-01-03T21:03:48.574Z,44.47
2019-01-03T21:05:53.008Z,44.37
2019-01-03T21:09:48.371Z,44.13
2019-01-03T21:11:48.410Z,44.14
2019-01-03T21:15:53.624Z,44.54
2019-01-03T21:17:48.626Z,44.87
2019-01-03T21:21:48.432Z,44.58
2019-01-03T21:23:48.394Z,44.49
2019-01-03T21:27:48.395Z,44.84
2019-01-03T21:29:49.106Z,44.74
2019-01-03T21:33:49.924Z,44.50
2019-01-03T21:35:48.645Z,44.31
2019-01-03T21:39:48.402Z,44.70
2019-01-03T21:41:48.423Z,43.89
2019-01-03T21:45:48.434Z,43.47
2019-01-03T21:47:48.416Z,43.61
2019-01-03T21:51:48.393Z,44.03
2019-01-03T21:53:48.459Z,44.18
2019-01-03T21:57:48.414Z,44.43
2019-01-03T21:59:48.446Z,44.39
2019-01-03T22:03:48.434Z,44.38
2019-01-03T22:05:48.449Z,44.82
2019-01-03T22:09:48.441Z,45.17
2019-01-03T22:11:48.424Z,44.86
2019-01-03T22:15:48.429Z,44.83
2019-01-03T22:17:48.428Z,45.23
2019-01-03T22:21:48.791Z,45.30
2019-01-03T22:23:48.417Z,45.25
2019-01-03T22:27:48.454Z,45.60
2019-01-03T22:29:48.417Z,45.82
2019-01-03T22:33:48.455Z,45.94
2019-01-03T22:35:48.424Z,45.89
2019-01-03T22:39:48.427Z,46.02
2019-01-03T22:41:48.536Z,45.95
2019-01-03T22:45:48.415Z,45.81
2019-01-03T22:47:48.438Z,45.97
2019-01-03T22:53:48.432Z,46.12
2019-01-03T22:55:48.476Z,46.11
2019-01-03T22:59:48.443Z,46.21
2019-01-03T23:01:48.437Z,46.32
2019-01-03T23:05:48.517Z,46.29
2019-01-03T23:07:48.448Z,46.26
2019-01-03T23:11:48.456Z,46.36
2019-01-03T23:13:48.498Z,46.38
2019-01-03T23:17:48.452Z,46.25
2019-01-03T23:19:48.455Z,46.45
2019-01-03T23:23:48.475Z,46.30
2019-01-03T23:25:48.468Z,46.55
2019-01-03T23:29:48.689Z,46.43
2019-01-03T23:31:48.808Z,46.57
2019-01-03T23:35:48.516Z,46.67
2019-01-03T23:37:48.493Z,46.63
2019-01-03T23:41:48.489Z,46.39
2019-01-03T23:43:48.466Z,46.56
2019-01-03T23:47:49.550Z,46.64
2019-01-03T23:49:48.514Z,46.75
2019-01-03T23:53:48.454Z,46.63
2019-01-03T23:55:48.484Z,46.78
